Time;durP1;ratioP1;P1;durP2;ratioP2;P2;SDS_P1;SDS_P2;PMS_P1;PMS_P2;Temp;Humidity;BMP_temperature;BMP_pressure;BME280_temperature;BME280_humidity;BME280_pressure;Samples;Min_cycle;Max_cycle;Signal;HPM_P1;HPM_P2
2023/12/01 00:01:18;;;;;;;132.03;39.13;;;;;;;;;;5095948;28;20252;-76
2023/12/01 00:03:48;;;;;;;142.67;39.50;;;;;;;;;;5096363;28;20244;-76
2023/12/01 00:06:16;;;;;;;118.50;35.97;;;;;;;;;;5095735;28;20213;-76
2023/12/01 00:08:42;;;;;;;101.90;30.33;;;;;;;;;;5096093;28;20203;-76
2023/12/01 00:11:10;;;;;;;68.77;23.73;;;;;;;;;;5095736;28;20232;-76
2023/12/01 00:13:37;;;;;;;61.63;20.43;;;;;;;;;;5096074;28;20198;-76
2023/12/01 00:16:05;;;;;;;220.87;45.57;;;;;;;;;;5094437;28;20199;-76
2023/12/01 00:18:32;;;;;;;202.40;47.10;;;;;;;;;;5095992;28;20255;-76
2023/12/01 00:20:59;;;;;;;77.60;25.00;;;;;;;;;;5096017;28;20217;-76
2023/12/01 00:23:29;;;;;;;71.53;24.10;;;;;;;;;;5095961;28;20223;-76
2023/12/01 00:25:56;;;;;;;49.90;18.03;;;;;;;;;;5094290;28;20195;-76
2023/12/01 00:28:24;;;;;;;128.30;29.17;;;;;;;;;;5094242;28;20227;-75
2023/12/01 00:30:51;;;;;;;117.03;34.40;;;;;;;;;;5095602;28;20194;-76
2023/12/01 00:33:18;;;;;;;198.10;43.93;;;;;;;;;;5093865;28;20598;-75
2023/12/01 00:35:46;;;;;;;175.50;40.37;;;;;;;;;;5095549;28;20211;-75
2023/12/01 00:38:13;;;;;;;88.17;26.73;;;;;;;;;;5075204;28;20223;-76
2023/12/01 00:40:40;;;;;;;138.37;43.00;;;;;;;;;;5073972;28;20215;-76
2023/12/01 00:43:09;;;;;;;172.67;40.47;;;;;;;;;;5075065;28;20231;-77
2023/12/01 00:45:37;;;;;;;89.47;27.00;;;;;;;;;;5057633;28;20200;-76
2023/12/01 00:48:04;;;;;;;84.00;24.33;;;;;;;;;;5073999;28;20199;-76
2023/12/01 00:50:31;;;;;;;111.30;36.60;;;;;;;;;;5073884;28;20275;-76
2023/12/01 00:52:58;;;;;;;137.77;45.47;;;;;;;;;;5075134;28;20641;-75
2023/12/01 00:55:25;;;;;;;58.80;19.83;;;;;;;;;;5074500;28;20207;-76
2023/12/01 00:57:53;;;;;;;67.93;25.20;;;;;;;;;;5073708;28;20223;-76
2023/12/01 01:00:22;;;;;;;65.67;20.83;;;;;;;;;;5073920;28;20242;-76
2023/12/01 01:02:50;;;;;;;67.70;23.33;;;;;;;;;;5073503;28;20246;-76
2023/12/01 01:05:17;;;;;;;80.03;24.13;;;;;;;;;;5073298;28;20278;-76
2023/12/01 01:07:45;;;;;;;58.40;19.37;;;;;;;;;;5073378;28;20195;-76
2023/12/01 01:10:13;;;;;;;67.30;19.30;;;;;;;;;;5072979;28;20206;-76
2023/12/01 01:12:40;;;;;;;57.33;17.90;;;;;;;;;;5074783;28;20230;-75
2023/12/01 01:15:07;;;;;;;96.70;21.43;;;;;;;;;;5073054;28;20656;-75
2023/12/01 01:17:34;;;;;;;62.10;15.13;;;;;;;;;;5074164;28;20231;-75
2023/12/01 01:20:03;;;;;;;76.03;23.23;;;;;;;;;;5074414;28;20199;-76
2023/12/01 01:22:31;;;;;;;76.40;20.77;;;;;;;;;;5074044;28;20267;-76
2023/12/01 01:24:58;;;;;;;101.60;24.63;;;;;;;;;;5056968;28;20188;-76
2023/12/01 01:27:26;;;;;;;61.70;16.70;;;;;;;;;;5056804;28;20206;-76
2023/12/01 01:29:53;;;;;;;74.90;14.37;;;;;;;;;;5073087;28;20199;-76
2023/12/01 01:32:20;;;;;;;61.10;12.07;;;;;;;;;;5074212;28;20199;-76
2023/12/01 01:34:47;;;;;;;68.47;12.50;;;;;;;;;;5074061;28;20199;-76
2023/12/01 01:37:15;;;;;;;51.13;20.80;;;;;;;;;;5073513;28;20195;-76
2023/12/01 01:39:42;;;;;;;66.53;21.90;;;;;;;;;;5074329;28;20204;-75
2023/12/01 01:42:09;;;;;;;58.87;19.47;;;;;;;;;;5073823;28;20199;-76
2023/12/01 01:44:36;;;;;;;61.53;22.90;;;;;;;;;;5073191;28;20527;-76
2023/12/01 01:47:03;;;;;;;75.47;23.47;;;;;;;;;;5072466;28;20199;-76
2023/12/01 01:49:31;;;;;;;86.77;24.97;;;;;;;;;;5073857;28;20207;-76
2023/12/01 01:51:59;;;;;;;80.73;25.43;;;;;;;;;;5072612;28;20227;-75
2023/12/01 01:54:27;;;;;;;75.03;23.90;;;;;;;;;;5072901;28;20206;-75
2023/12/01 01:56:55;;;;;;;86.17;26.33;;;;;;;;;;5072475;28;20268;-75
2023/12/01 01:59:22;;;;;;;60.70;20.53;;;;;;;;;;5072432;28;20219;-76
2023/12/01 02:01:50;;;;;;;63.57;22.60;;;;;;;;;;5072598;28;20197;-76
2023/12/01 02:04:18;;;;;;;62.43;22.47;;;;;;;;;;5055927;28;20206;-76
2023/12/01 02:06:48;;;;;;;66.57;23.63;;;;;;;;;;5072882;28;20252;-75
2023/12/01 02:09:16;;;;;;;92.93;24.60;;;;;;;;;;5073442;28;20206;-75
2023/12/01 02:11:43;;;;;;;66.67;21.30;;;;;;;;;;5072511;28;20191;-75
2023/12/01 02:14:13;;;;;;;67.63;24.57;;;;;;;;;;5072424;28;20199;-76
2023/12/01 02:16:45;;;;;;;74.50;25.37;;;;;;;;;;5055722;28;20207;-75
2023/12/01 02:19:13;;;;;;;94.27;31.83;;;;;;;;;;5055951;28;20218;-76
2023/12/01 02:21:45;;;;;;;77.73;25.13;;;;;;;;;;5072128;28;20207;-75
2023/12/01 02:24:13;;;;;;;56.77;21.83;;;;;;;;;;5072165;28;20231;-75
2023/12/01 02:26:40;;;;;;;92.63;33.27;;;;;;;;;;5073376;28;20221;-75
2023/12/01 02:29:08;;;;;;;81.73;27.23;;;;;;;;;;5055712;28;20710;-75
2023/12/01 02:31:36;;;;;;;61.93;16.10;;;;;;;;;;5072199;28;20303;-75
2023/12/01 02:34:03;;;;;;;57.87;19.73;;;;;;;;;;5073625;28;20199;-75
2023/12/01 02:36:31;;;;;;;53.70;20.30;;;;;;;;;;5073265;28;20218;-76
2023/12/01 02:38:58;;;;;;;86.47;31.93;;;;;;;;;;5055634;28;20573;-75
2023/12/01 02:41:25;;;;;;;117.40;31.07;;;;;;;;;;5073290;28;20266;-76
2023/12/01 02:43:54;;;;;;;90.90;25.97;;;;;;;;;;5055941;28;20605;-75
2023/12/01 02:46:22;;;;;;;84.07;25.10;;;;;;;;;;5071967;28;20278;-76
2023/12/01 02:48:51;;;;;;;71.83;26.63;;;;;;;;;;5073072;28;20655;-76
2023/12/01 02:51:18;;;;;;;73.17;21.53;;;;;;;;;;5073167;28;20675;-76
2023/12/01 02:53:46;;;;;;;83.87;26.10;;;;;;;;;;5072123;28;20771;-76
2023/12/01 02:56:12;;;;;;;69.97;24.57;;;;;;;;;;5076217;28;20589;-77
2023/12/01 02:58:40;;;;;;;83.47;22.67;;;;;;;;;;5076058;28;20219;-76
2023/12/01 03:01:07;;;;;;;51.87;19.70;;;;;;;;;;5075678;28;20208;-76
2023/12/01 03:03:34;;;;;;;60.03;22.33;;;;;;;;;;5076872;28;20214;-76
2023/12/01 03:06:02;;;;;;;82.37;24.70;;;;;;;;;;5057336;28;20204;-75
2023/12/01 03:08:29;;;;;;;86.43;25.70;;;;;;;;;;5075344;28;20195;-76
2023/12/01 03:10:56;;;;;;;65.13;21.80;;;;;;;;;;5075147;28;20232;-76
2023/12/01 03:13:23;;;;;;;70.47;24.87;;;;;;;;;;5075356;28;20207;-76
2023/12/01 03:15:50;;;;;;;62.27;22.83;;;;;;;;;;5073871;28;20249;-76
2023/12/01 03:18:20;;;;;;;69.70;25.23;;;;;;;;;;5075179;28;20230;-76
2023/12/01 03:20:50;;;;;;;75.70;24.90;;;;;;;;;;5075045;28;20199;-75
2023/12/01 03:23:17;;;;;;;71.10;23.63;;;;;;;;;;5073743;28;20235;-75
2023/12/01 03:25:44;;;;;;;75.47;22.90;;;;;;;;;;5076022;28;20640;-75
2023/12/01 03:28:11;;;;;;;57.57;21.13;;;;;;;;;;5075463;28;20253;-75
2023/12/01 03:30:39;;;;;;;64.73;19.37;;;;;;;;;;5058979;28;20196;-75
2023/12/01 03:33:06;;;;;;;55.27;20.70;;;;;;;;;;5075382;28;20702;-75
2023/12/01 03:35:33;;;;;;;60.23;20.63;;;;;;;;;;5075344;28;20200;-75
2023/12/01 03:38:01;;;;;;;51.50;20.17;;;;;;;;;;5075155;28;20660;-75
2023/12/01 03:40:28;;;;;;;65.20;21.27;;;;;;;;;;5076285;28;20615;-75
2023/12/01 03:42:55;;;;;;;72.90;24.87;;;;;;;;;;5076175;28;20199;-75
2023/12/01 03:45:23;;;;;;;52.87;21.70;;;;;;;;;;5076132;28;20198;-75
2023/12/01 03:47:51;;;;;;;89.83;28.90;;;;;;;;;;5074993;28;20261;-75
2023/12/01 03:50:18;;;;;;;95.27;29.23;;;;;;;;;;5075156;28;20203;-75
2023/12/01 03:52:49;;;;;;;68.40;21.83;;;;;;;;;;5058601;28;20199;-75
2023/12/01 03:55:16;;;;;;;72.37;24.60;;;;;;;;;;5075034;28;20203;-75
2023/12/01 03:57:44;;;;;;;72.73;22.67;;;;;;;;;;5042172;28;20249;-75
2023/12/01 04:00:16;;;;;;;66.67;24.17;;;;;;;;;;5075104;28;20294;-75
2023/12/01 04:02:46;;;;;;;66.10;24.37;;;;;;;;;;5074764;28;20195;-75
2023/12/01 04:05:22;;;;;;;57.83;19.83;;;;;;;;;;5074458;28;20203;-75
2023/12/01 04:07:51;;;;;;;51.27;19.80;;;;;;;;;;5074803;28;20199;-75
2023/12/01 04:10:23;;;;;;;53.83;20.80;;;;;;;;;;5075503;28;20201;-75
2023/12/01 04:12:51;;;;;;;54.50;19.50;;;;;;;;;;5074729;28;20195;-75
2023/12/01 04:15:19;;;;;;;49.33;18.77;;;;;;;;;;5075528;28;20202;-75
2023/12/01 04:17:48;;;;;;;53.13;20.93;;;;;;;;;;5057791;28;20218;-75
2023/12/01 04:20:20;;;;;;;68.80;21.57;;;;;;;;;;5074732;28;20226;-76
2023/12/01 04:23:00;;;;;;;73.33;23.67;;;;;;;;;;5074262;28;20227;-75
2023/12/01 04:25:27;;;;;;;62.00;22.17;;;;;;;;;;5074373;28;20248;-75
2023/12/01 04:27:57;;;;;;;56.90;21.13;;;;;;;;;;5075262;28;20252;-75
2023/12/01 04:30:25;;;;;;;58.27;19.77;;;;;;;;;;5078471;28;20660;-75
2023/12/01 04:32:54;;;;;;;57.10;19.57;;;;;;;;;;5066849;28;20196;-75
2023/12/01 04:35:29;;;;;;;53.97;16.97;;;;;;;;;;5064109;28;20200;-75
2023/12/01 04:37:58;;;;;;;52.37;17.90;;;;;;;;;;5063361;28;20203;-75
2023/12/01 04:40:27;;;;;;;41.73;17.40;;;;;;;;;;5062319;28;20986;-76
2023/12/01 04:42:56;;;;;;;64.23;22.80;;;;;;;;;;5065233;28;20195;-75
2023/12/01 04:45:31;;;;;;;67.80;22.27;;;;;;;;;;5064309;28;20196;-75
2023/12/01 04:47:58;;;;;;;67.10;20.17;;;;;;;;;;5076844;28;20214;-75
2023/12/01 04:50:28;;;;;;;63.00;19.77;;;;;;;;;;5071702;28;20196;-76
2023/12/01 04:52:57;;;;;;;63.70;19.37;;;;;;;;;;5082213;28;20191;-76
2023/12/01 04:55:25;;;;;;;46.60;18.27;;;;;;;;;;5086264;28;20203;-76
2023/12/01 04:57:54;;;;;;;69.37;21.87;;;;;;;;;;5077385;28;20253;-76
2023/12/01 05:00:26;;;;;;;61.83;22.90;;;;;;;;;;5073728;28;20223;-76
2023/12/01 05:02:56;;;;;;;60.93;22.83;;;;;;;;;;5080024;28;20191;-76
2023/12/01 05:05:25;;;;;;;58.37;20.30;;;;;;;;;;5070246;28;20239;-76
2023/12/01 05:07:56;;;;;;;54.67;19.50;;;;;;;;;;5073218;28;20235;-76
2023/12/01 05:10:27;;;;;;;67.33;23.20;;;;;;;;;;5078824;28;20234;-76
2023/12/01 05:12:56;;;;;;;63.00;21.93;;;;;;;;;;5073385;28;20684;-78
2023/12/01 05:15:25;;;;;;;57.67;22.77;;;;;;;;;;5078907;28;20250;-76
2023/12/01 05:18:01;;;;;;;61.17;25.10;;;;;;;;;;5072551;28;20228;-76
2023/12/01 05:20:28;;;;;;;69.03;24.20;;;;;;;;;;5060862;28;20665;-76
2023/12/01 05:23:10;;;;;;;72.67;25.03;;;;;;;;;;5053449;28;20246;-76
2023/12/01 05:25:41;;;;;;;71.23;25.33;;;;;;;;;;5074418;28;20238;-76
2023/12/01 05:28:10;;;;;;;61.23;21.57;;;;;;;;;;5093815;28;20664;-76
2023/12/01 05:30:40;;;;;;;153.77;51.70;;;;;;;;;;5070145;28;20273;-76
2023/12/01 05:33:08;;;;;;;153.20;55.67;;;;;;;;;;5055019;28;20204;-75
2023/12/01 05:35:36;;;;;;;113.23;37.80;;;;;;;;;;5059700;28;20286;-76
2023/12/01 05:38:04;;;;;;;87.50;34.07;;;;;;;;;;5073100;28;20219;-76
2023/12/01 05:40:36;;;;;;;88.20;28.90;;;;;;;;;;5064453;28;20225;-76
2023/12/01 05:43:05;;;;;;;116.63;33.57;;;;;;;;;;5072837;28;20234;-76
2023/12/01 05:45:33;;;;;;;77.43;29.13;;;;;;;;;;5072219;28;20584;-76
2023/12/01 05:48:02;;;;;;;74.20;24.60;;;;;;;;;;5072952;28;20617;-76
2023/12/01 05:50:31;;;;;;;59.33;20.87;;;;;;;;;;5054761;28;20223;-76
2023/12/01 05:53:00;;;;;;;60.13;21.33;;;;;;;;;;5065371;28;20235;-76
2023/12/01 05:55:29;;;;;;;64.13;22.07;;;;;;;;;;5059881;28;20264;-76
2023/12/01 05:58:06;;;;;;;62.60;20.47;;;;;;;;;;5069452;28;20277;-76
2023/12/01 06:00:33;;;;;;;56.80;20.00;;;;;;;;;;5071229;28;20246;-76
2023/12/01 06:03:06;;;;;;;70.10;23.73;;;;;;;;;;5075160;28;20285;-76
2023/12/01 06:05:35;;;;;;;68.00;26.33;;;;;;;;;;5067902;28;20625;-76
2023/12/01 06:08:03;;;;;;;170.87;46.43;;;;;;;;;;5059991;28;20192;-76
2023/12/01 06:10:32;;;;;;;80.77;26.77;;;;;;;;;;5062245;28;20305;-76
2023/12/01 06:13:00;;;;;;;66.33;21.83;;;;;;;;;;5061174;28;20196;-76
2023/12/01 06:15:30;;;;;;;59.63;21.77;;;;;;;;;;5067082;28;20202;-76
2023/12/01 06:17:59;;;;;;;59.27;20.73;;;;;;;;;;5061860;28;20195;-76
2023/12/01 06:20:27;;;;;;;55.50;22.07;;;;;;;;;;5060836;28;20257;-76
2023/12/01 06:22:59;;;;;;;73.40;24.47;;;;;;;;;;5062286;28;20223;-76
2023/12/01 06:25:29;;;;;;;66.57;23.27;;;;;;;;;;5062324;28;20199;-76
2023/12/01 06:27:58;;;;;;;77.67;22.40;;;;;;;;;;5063390;28;20196;-76
2023/12/01 06:30:27;;;;;;;86.13;25.07;;;;;;;;;;5060003;28;20192;-76
2023/12/01 06:32:55;;;;;;;67.40;23.30;;;;;;;;;;5060283;28;20200;-76
2023/12/01 06:35:23;;;;;;;59.23;20.67;;;;;;;;;;5037406;28;20188;-76
2023/12/01 06:37:50;;;;;;;62.00;22.07;;;;;;;;;;5053264;28;20207;-76
2023/12/01 06:40:17;;;;;;;56.90;20.00;;;;;;;;;;5052910;28;20227;-76
2023/12/01 06:42:48;;;;;;;50.27;18.57;;;;;;;;;;5053396;28;20200;-76
2023/12/01 06:45:17;;;;;;;50.57;18.57;;;;;;;;;;5051972;28;20653;-76
2023/12/01 06:47:47;;;;;;;45.47;19.40;;;;;;;;;;5057717;28;20204;-75
2023/12/01 06:50:16;;;;;;;49.67;18.60;;;;;;;;;;5060326;28;20688;-76
2023/12/01 06:52:45;;;;;;;56.53;19.33;;;;;;;;;;5073028;28;20214;-76
2023/12/01 06:55:12;;;;;;;48.97;17.67;;;;;;;;;;5052009;28;20196;-76
2023/12/01 06:57:44;;;;;;;56.10;19.67;;;;;;;;;;5052895;28;20201;-76
2023/12/01 07:00:56;;;;;;;57.30;19.33;;;;;;;;;;5053351;28;20211;-76
2023/12/01 07:03:05;;;;;;;56.43;18.27;;;;;;;;;;5047844;28;20207;-76
2023/12/01 07:05:34;;;;;;;47.90;18.13;;;;;;;;;;5052824;28;20204;-76
2023/12/01 07:08:04;;;;;;;58.27;19.17;;;;;;;;;;5051617;28;20204;-76
2023/12/01 07:10:34;;;;;;;44.83;19.00;;;;;;;;;;5051502;28;20208;-76
2023/12/01 07:13:03;;;;;;;47.47;17.40;;;;;;;;;;5052922;28;20262;-76
2023/12/01 07:15:31;;;;;;;50.07;19.33;;;;;;;;;;5070137;28;20196;-76
2023/12/01 07:17:58;;;;;;;47.20;17.17;;;;;;;;;;5054879;28;20622;-76
2023/12/01 07:20:26;;;;;;;50.87;19.07;;;;;;;;;;5072776;28;20261;-76
2023/12/01 07:22:53;;;;;;;49.57;20.13;;;;;;;;;;5071128;28;20235;-76
2023/12/01 07:25:21;;;;;;;44.87;17.87;;;;;;;;;;5071425;28;20222;-76
2023/12/01 07:28:00;;;;;;;57.17;21.83;;;;;;;;;;5072436;28;20207;-76
2023/12/01 07:30:28;;;;;;;54.53;19.80;;;;;;;;;;5054759;28;20253;-76
2023/12/01 07:32:57;;;;;;;56.50;19.97;;;;;;;;;;5072615;28;20578;-76
2023/12/01 07:35:24;;;;;;;60.73;21.60;;;;;;;;;;5071308;28;20554;-76
2023/12/01 07:37:55;;;;;;;66.27;21.40;;;;;;;;;;5055151;28;20204;-76
2023/12/01 07:40:23;;;;;;;64.67;20.43;;;;;;;;;;5051559;28;20293;-76
2023/12/01 07:42:56;;;;;;;49.57;18.83;;;;;;;;;;5037853;28;20188;-76
2023/12/01 07:45:25;;;;;;;70.63;23.27;;;;;;;;;;5071834;28;20187;-76
2023/12/01 07:47:54;;;;;;;57.67;21.20;;;;;;;;;;5071849;28;20210;-76
2023/12/01 07:50:22;;;;;;;70.80;22.10;;;;;;;;;;5056408;28;20204;-76
2023/12/01 07:52:50;;;;;;;71.03;24.27;;;;;;;;;;5055935;28;20203;-76
2023/12/01 07:55:19;;;;;;;66.00;24.97;;;;;;;;;;5055971;28;20223;-76
2023/12/01 07:57:47;;;;;;;64.23;24.20;;;;;;;;;;5066037;28;20199;-76
2023/12/01 08:00:15;;;;;;;59.83;23.90;;;;;;;;;;5075824;28;20269;-76
2023/12/01 08:02:43;;;;;;;95.83;29.07;;;;;;;;;;5075608;28;20196;-76
2023/12/01 08:05:13;;;;;;;80.90;28.47;;;;;;;;;;5074777;28;20274;-76
2023/12/01 08:07:46;;;;;;;162.27;45.30;;;;;;;;;;5075415;28;20191;-76
2023/12/01 08:10:16;;;;;;;178.30;44.83;;;;;;;;;;5074536;28;20294;-77
2023/12/01 08:12:46;;;;;;;142.63;39.43;;;;;;;;;;5075369;28;20196;-77
2023/12/01 08:15:14;;;;;;;85.73;32.00;;;;;;;;;;5074516;28;20628;-75
2023/12/01 08:17:44;;;;;;;120.33;43.00;;;;;;;;;;5075747;28;20640;-78
2023/12/01 08:20:11;;;;;;;124.73;41.00;;;;;;;;;;5058820;28;20239;-77
2023/12/01 08:22:39;;;;;;;89.90;30.47;;;;;;;;;;5055316;28;20228;-77
2023/12/01 08:25:08;;;;;;;102.43;34.70;;;;;;;;;;5054392;28;20203;-77
2023/12/01 08:27:37;;;;;;;109.83;37.17;;;;;;;;;;5067876;28;20202;-77
2023/12/01 08:30:05;;;;;;;121.43;40.27;;;;;;;;;;5075582;28;20199;-77
2023/12/01 08:32:32;;;;;;;110.37;37.03;;;;;;;;;;5070742;28;20247;-77
2023/12/01 08:35:00;;;;;;;130.70;39.83;;;;;;;;;;5055495;28;20200;-77
2023/12/01 08:37:27;;;;;;;129.80;43.73;;;;;;;;;;5065855;28;20207;-77
2023/12/01 08:39:54;;;;;;;154.77;47.97;;;;;;;;;;5071648;28;20226;-77
2023/12/01 08:42:23;;;;;;;142.30;45.57;;;;;;;;;;5060329;28;20200;-77
2023/12/01 08:44:50;;;;;;;138.73;46.13;;;;;;;;;;5055076;28;20279;-75
2023/12/01 08:47:21;;;;;;;143.60;45.53;;;;;;;;;;5056805;28;20192;-77
2023/12/01 08:49:50;;;;;;;136.87;47.13;;;;;;;;;;5065525;28;20246;-77
2023/12/01 08:52:18;;;;;;;126.13;42.37;;;;;;;;;;5054358;28;20200;-76
2023/12/01 08:54:45;;;;;;;127.00;39.90;;;;;;;;;;5054963;28;20188;-77
2023/12/01 08:57:13;;;;;;;124.53;39.70;;;;;;;;;;5057075;28;20195;-77
2023/12/01 08:59:40;;;;;;;114.50;41.23;;;;;;;;;;5072995;28;20234;-76
2023/12/01 09:02:07;;;;;;;108.57;38.07;;;;;;;;;;5054631;28;20200;-77
2023/12/01 09:04:38;;;;;;;117.93;41.13;;;;;;;;;;5054833;28;20223;-76
2023/12/01 09:07:06;;;;;;;113.73;40.07;;;;;;;;;;5054341;28;20200;-76
2023/12/01 09:09:34;;;;;;;130.80;43.43;;;;;;;;;;5054639;28;20223;-76
2023/12/01 09:12:01;;;;;;;154.67;48.03;;;;;;;;;;5054112;28;20257;-76
2023/12/01 09:14:29;;;;;;;147.50;48.27;;;;;;;;;;5054606;28;20192;-76
2023/12/01 09:16:56;;;;;;;149.23;50.80;;;;;;;;;;5054282;28;20196;-76
2023/12/01 09:19:23;;;;;;;157.23;50.23;;;;;;;;;;5054004;28;20657;-76
2023/12/01 09:21:51;;;;;;;179.50;51.43;;;;;;;;;;5053506;28;20201;-76
2023/12/01 09:24:17;;;;;;;184.90;50.33;;;;;;;;;;5054206;28;20311;-76
2023/12/01 09:26:45;;;;;;;164.57;50.80;;;;;;;;;;5053944;28;20204;-76
2023/12/01 09:29:12;;;;;;;191.60;55.70;;;;;;;;;;5054014;28;20285;-76
2023/12/01 09:31:46;;;;;;;182.97;55.00;;;;;;;;;;5054063;28;20203;-76
2023/12/01 09:34:14;;;;;;;191.27;54.30;;;;;;;;;;5053767;28;20211;-76
2023/12/01 09:36:41;;;;;;;208.03;58.13;;;;;;;;;;5065795;28;20199;-76
2023/12/01 09:39:08;;;;;;;218.33;58.27;;;;;;;;;;5054253;28;20634;-76
2023/12/01 09:41:36;;;;;;;205.17;56.87;;;;;;;;;;5053965;28;20294;-76
2023/12/01 09:44:03;;;;;;;202.27;56.27;;;;;;;;;;5054003;28;20221;-76
2023/12/01 09:46:40;;;;;;;193.53;53.27;;;;;;;;;;5072707;28;20203;-76
2023/12/01 09:49:07;;;;;;;210.27;58.27;;;;;;;;;;5037963;28;20591;-75
2023/12/01 09:51:36;;;;;;;194.20;58.03;;;;;;;;;;5053597;28;20552;-76
2023/12/01 09:54:03;;;;;;;170.00;50.30;;;;;;;;;;5053643;28;20242;-75
2023/12/01 09:56:32;;;;;;;179.53;49.90;;;;;;;;;;5053718;28;20204;-76
2023/12/01 09:58:59;;;;;;;156.67;47.30;;;;;;;;;;5053514;28;20196;-75
2023/12/01 10:01:27;;;;;;;182.03;50.80;;;;;;;;;;5053401;28;20220;-75
2023/12/01 10:03:54;;;;;;;176.80;51.50;;;;;;;;;;5071075;28;20203;-76
2023/12/01 10:06:23;;;;;;;186.00;55.97;;;;;;;;;;5073618;28;20202;-76
2023/12/01 10:08:51;;;;;;;185.27;53.93;;;;;;;;;;5072209;28;20193;-76
2023/12/01 10:11:20;;;;;;;175.23;51.03;;;;;;;;;;5070775;28;20195;-76
2023/12/01 10:13:49;;;;;;;242.83;64.93;;;;;;;;;;5053061;28;20227;-75
2023/12/01 10:16:17;;;;;;;239.17;70.07;;;;;;;;;;5052174;28;20196;-76
2023/12/01 10:19:00;;;;;;;176.17;53.50;;;;;;;;;;5053151;28;20196;-76
2023/12/01 10:21:48;;;;;;;160.60;55.37;;;;;;;;;;5053473;28;20220;-75
2023/12/01 10:24:23;;;;;;;156.27;50.77;;;;;;;;;;5062043;28;20238;-75
2023/12/01 10:26:55;;;;;;;165.00;53.00;;;;;;;;;;5073286;28;20252;-76
2023/12/01 10:29:28;;;;;;;169.50;54.13;;;;;;;;;;5055451;28;20230;-75
2023/12/01 10:32:11;;;;;;;172.20;56.77;;;;;;;;;;5072990;28;20199;-76
2023/12/01 10:34:40;;;;;;;174.33;56.23;;;;;;;;;;5056278;28;20249;-76
2023/12/01 10:37:08;;;;;;;161.43;55.63;;;;;;;;;;5072185;28;20196;-76
2023/12/01 10:39:37;;;;;;;150.10;50.00;;;;;;;;;;5061129;28;20208;-76
2023/12/01 10:42:05;;;;;;;155.47;52.73;;;;;;;;;;5051781;28;20219;-76
2023/12/01 10:44:33;;;;;;;142.57;50.40;;;;;;;;;;5053367;28;20196;-76
2023/12/01 10:47:02;;;;;;;133.37;48.20;;;;;;;;;;5051918;28;21132;-76
2023/12/01 10:49:29;;;;;;;235.90;65.47;;;;;;;;;;5052841;28;20611;-76
2023/12/01 10:51:57;;;;;;;171.70;55.47;;;;;;;;;;5051974;28;20204;-76
2023/12/01 10:54:26;;;;;;;164.20;51.20;;;;;;;;;;5052089;28;20207;-76
2023/12/01 10:57:18;;;;;;;168.20;54.87;;;;;;;;;;5055873;28;20252;-76
2023/12/01 10:59:52;;;;;;;220.90;72.17;;;;;;;;;;5071849;28;20659;-76
2023/12/01 11:02:23;;;;;;;185.00;63.57;;;;;;;;;;5071962;28;20554;-75
2023/12/01 11:04:51;;;;;;;169.37;58.60;;;;;;;;;;5071970;28;20199;-75
2023/12/01 11:07:29;;;;;;;157.80;55.43;;;;;;;;;;5071850;28;20207;-75
2023/12/01 11:10:02;;;;;;;138.90;52.47;;;;;;;;;;5072691;28;20195;-75
2023/12/01 11:12:49;;;;;;;145.20;52.93;;;;;;;;;;5073167;28;20190;-76
2023/12/01 11:15:21;;;;;;;166.37;55.93;;;;;;;;;;5061071;28;20241;-76
2023/12/01 11:17:49;;;;;;;163.83;56.10;;;;;;;;;;5076501;28;20195;-76
2023/12/01 11:20:42;;;;;;;157.73;54.07;;;;;;;;;;5075561;28;20557;-76
2023/12/01 11:23:13;;;;;;;141.37;50.40;;;;;;;;;;5073830;28;20688;-76
2023/12/01 11:25:48;;;;;;;159.50;56.90;;;;;;;;;;5056672;28;20278;-76
2023/12/01 11:28:46;;;;;;;149.43;56.30;;;;;;;;;;5055304;28;20200;-75
2023/12/01 11:31:25;;;;;;;189.93;65.50;;;;;;;;;;5041480;28;20196;-76
2023/12/01 11:33:54;;;;;;;173.83;56.30;;;;;;;;;;5055507;28;20204;-75
2023/12/01 11:36:31;;;;;;;179.80;57.03;;;;;;;;;;5070234;28;20200;-76
2023/12/01 11:39:10;;;;;;;190.43;61.20;;;;;;;;;;5071867;28;20199;-75
2023/12/01 11:41:49;;;;;;;174.90;66.73;;;;;;;;;;5071845;28;20223;-76
2023/12/01 11:44:18;;;;;;;141.00;53.30;;;;;;;;;;5055298;28;20192;-75
2023/12/01 11:46:47;;;;;;;167.27;54.17;;;;;;;;;;5038620;28;20222;-75
2023/12/01 11:49:15;;;;;;;133.63;49.83;;;;;;;;;;5055031;28;20204;-75
2023/12/01 11:51:45;;;;;;;124.23;48.17;;;;;;;;;;5056000;28;20231;-76
2023/12/01 11:54:12;;;;;;;156.63;54.53;;;;;;;;;;5055266;28;20200;-75
2023/12/01 11:56:39;;;;;;;123.23;48.43;;;;;;;;;;5054545;28;20204;-75
2023/12/01 11:59:08;;;;;;;122.20;49.40;;;;;;;;;;5055917;28;20192;-75
2023/12/01 12:01:37;;;;;;;156.80;60.37;;;;;;;;;;5060789;28;20289;-75
2023/12/01 12:04:05;;;;;;;221.93;76.80;;;;;;;;;;5061106;28;20204;-75
2023/12/01 12:06:32;;;;;;;153.67;54.13;;;;;;;;;;5055541;28;20234;-75
2023/12/01 12:09:06;;;;;;;185.47;60.17;;;;;;;;;;5055874;28;20561;-75
2023/12/01 12:11:35;;;;;;;140.87;53.83;;;;;;;;;;5055711;28;20627;-75
2023/12/01 12:14:04;;;;;;;208.93;73.67;;;;;;;;;;5055428;28;20253;-75
2023/12/01 12:16:31;;;;;;;157.90;54.90;;;;;;;;;;5055667;28;20231;-75
2023/12/01 12:18:59;;;;;;;147.70;53.77;;;;;;;;;;5061239;28;20202;-75
2023/12/01 12:21:27;;;;;;;137.30;49.60;;;;;;;;;;5072168;28;20223;-75
2023/12/01 12:23:59;;;;;;;174.50;67.93;;;;;;;;;;5053912;28;20240;-75
2023/12/01 12:26:28;;;;;;;156.10;52.77;;;;;;;;;;5064325;28;20199;-75
2023/12/01 12:28:56;;;;;;;145.27;53.37;;;;;;;;;;5074316;28;20238;-75
2023/12/01 12:31:31;;;;;;;143.37;51.80;;;;;;;;;;5071882;28;20242;-75
2023/12/01 12:33:59;;;;;;;153.40;54.83;;;;;;;;;;5055166;28;20200;-75
2023/12/01 12:36:31;;;;;;;154.13;54.90;;;;;;;;;;5060805;28;20184;-75
2023/12/01 12:39:06;;;;;;;144.73;50.07;;;;;;;;;;5062036;28;20197;-75
2023/12/01 12:41:40;;;;;;;132.03;51.70;;;;;;;;;;5062505;28;20754;-75
2023/12/01 12:44:13;;;;;;;146.43;51.03;;;;;;;;;;5064355;28;20187;-75
2023/12/01 12:46:40;;;;;;;139.23;54.43;;;;;;;;;;5063458;28;20191;-75
2023/12/01 12:49:10;;;;;;;141.50;51.03;;;;;;;;;;5062820;28;20257;-75
2023/12/01 12:51:38;;;;;;;131.70;48.27;;;;;;;;;;5065036;28;20660;-75
2023/12/01 12:54:06;;;;;;;119.83;48.80;;;;;;;;;;5063586;28;20675;-75
2023/12/01 12:56:35;;;;;;;126.53;48.90;;;;;;;;;;5063679;28;20199;-75
2023/12/01 12:59:04;;;;;;;126.87;49.97;;;;;;;;;;5063313;28;20197;-75
2023/12/01 13:01:33;;;;;;;131.47;48.83;;;;;;;;;;5063707;28;20211;-75
2023/12/01 13:04:01;;;;;;;117.63;45.53;;;;;;;;;;5061079;28;20191;-75
2023/12/01 13:06:28;;;;;;;131.40;49.63;;;;;;;;;;5057141;28;20199;-75
2023/12/01 13:08:56;;;;;;;139.47;49.87;;;;;;;;;;5060222;28;20188;-75
2023/12/01 13:11:25;;;;;;;166.53;51.37;;;;;;;;;;5062461;28;20188;-75
2023/12/01 13:13:53;;;;;;;144.03;50.20;;;;;;;;;;5063860;28;20196;-75
2023/12/01 13:16:20;;;;;;;128.87;47.47;;;;;;;;;;5062011;28;20258;-75
2023/12/01 13:18:47;;;;;;;141.00;48.73;;;;;;;;;;5061656;28;20195;-75
2023/12/01 13:21:15;;;;;;;133.03;46.60;;;;;;;;;;5065172;28;20235;-75
2023/12/01 13:23:43;;;;;;;130.73;48.13;;;;;;;;;;5063813;28;20227;-75
2023/12/01 13:26:10;;;;;;;131.13;49.57;;;;;;;;;;5064674;28;20275;-75
2023/12/01 13:28:37;;;;;;;177.00;71.40;;;;;;;;;;5064041;28;20200;-75
2023/12/01 13:31:04;;;;;;;185.80;63.63;;;;;;;;;;5065440;28;20200;-75
2023/12/01 13:33:31;;;;;;;141.77;50.10;;;;;;;;;;5064968;28;20199;-75
2023/12/01 13:35:58;;;;;;;131.40;49.07;;;;;;;;;;5067324;28;20200;-75
2023/12/01 13:38:26;;;;;;;149.33;55.23;;;;;;;;;;5061299;28;20785;-76
2023/12/01 13:40:53;;;;;;;160.67;55.30;;;;;;;;;;5064184;28;20249;-75
2023/12/01 13:43:21;;;;;;;168.40;57.63;;;;;;;;;;5066994;28;20778;-75
2023/12/01 13:45:47;;;;;;;146.30;52.30;;;;;;;;;;5056185;28;20587;-76
2023/12/01 13:48:15;;;;;;;144.20;51.17;;;;;;;;;;5062044;28;20265;-75
2023/12/01 13:50:42;;;;;;;218.97;84.00;;;;;;;;;;5062943;28;20241;-75
2023/12/01 13:53:09;;;;;;;134.17;49.10;;;;;;;;;;5061198;28;20228;-75
2023/12/01 13:55:36;;;;;;;127.83;47.57;;;;;;;;;;5061394;28;20223;-75
2023/12/01 13:58:05;;;;;;;123.13;49.73;;;;;;;;;;5063092;28;20285;-75
2023/12/01 14:00:32;;;;;;;150.67;53.53;;;;;;;;;;5061521;28;20253;-74
2023/12/01 14:03:00;;;;;;;142.43;52.80;;;;;;;;;;5060285;28;20226;-74
2023/12/01 14:05:27;;;;;;;146.13;55.63;;;;;;;;;;5063286;28;20668;-73
2023/12/01 14:07:54;;;;;;;166.70;55.80;;;;;;;;;;5060083;28;20216;-73
2023/12/01 14:10:22;;;;;;;142.20;50.37;;;;;;;;;;5062725;28;20228;-73
2023/12/01 14:12:49;;;;;;;131.27;49.43;;;;;;;;;;5059396;28;20219;-73
2023/12/01 14:15:16;;;;;;;152.37;50.00;;;;;;;;;;5060556;28;20191;-73
2023/12/01 14:17:44;;;;;;;140.97;53.27;;;;;;;;;;5062201;28;20204;-73
2023/12/01 14:20:12;;;;;;;144.60;53.63;;;;;;;;;;5062028;28;20258;-73
2023/12/01 14:22:40;;;;;;;145.87;51.07;;;;;;;;;;5060303;28;20239;-73